Airfield :
LOGIN :

Register | Disclaimer

   EN    FR    IT 

 










Legend :    VFR   Marginal VFR   IFR   Intensive IFR   Very Intensive IFR
Visi :
Ceiling :
>= 8 km
>= 3000ft
5 to 8 km
1000 to 3000 ft
1500m to 5 km
500 to 1000 ft
800 to 1500m
200 to 500 ft
< 800m
< 200 ft
Symbols :   Thunderstorms  Fog  Heavy snow  Heavy precipitations  Wind > 20 kt
SIGMETs :     Misc.  Thunderstorms  Icing  Turbulence  Mountain Waves  Volcanic Ashes






- Airport Elevation : 640 ft
- IATA code : AOC


EDAC - Altenburg-Nobitz

CURRENT METAR :
  • 150650Z AUTO 05003KT 8000 // FEW027/// 03/02 Q1002

EXPIRED METARs :
  • 150620Z AUTO 06006KT 030V090 9000 // BKN027/// 04/02 Q1002
  • 150550Z AUTO 07008KT 030V090 8000 // OVC027/// 04/02 Q1002
  • 150520Z AUTO 06009KT 030V090 7000 // OVC027/// 03/02 Q1002
  • 150450Z AUTO 07006KT 7000 // BKN027/// 03/02 Q1003
  • 150420Z AUTO 06007KT 030V110 7000 // BKN028/// BKN250/// 03/02 Q1003

Expired Forecast.



MET'MAP, your aeronautical weather chart ! - Copyright ORBIFLY December 2007 - Disclaimer

ORBIFLY MET'MAP TEAM :

Programming & Development : Alexandra Zaïnal
Concept & Development : Baudouin d'Aumeries
Co-Development & Prog : Marc-Olivier Méhu
Technical & hardware support : Manuel Goepfert

Contact : metmap@orbifly.com




SOURCES & CREDITS :

   NOAA